Time;durP1;ratioP1;P1;durP2;ratioP2;P2;SDS_P1;SDS_P2;PMS_P1;PMS_P2;Temp;Humidity;BMP_temperature;BMP_pressure;BME280_temperature;BME280_humidity;BME280_pressure;Samples;Min_cycle;Max_cycle;Signal;HPM_P1;HPM_P2
2023/03/25 00:00:20;;;;;;;2.70;0.55;;;;;;;8.52;96.47;99459.03;4934118;28;20036;-81
2023/03/25 00:02:50;;;;;;;2.28;0.80;;;;;;;8.60;96.00;99451.06;4919926;28;20429;-78
2023/03/25 00:05:21;;;;;;;1.48;0.57;;;;;;;8.59;96.43;99449.34;4937747;28;20756;-83
2023/03/25 00:07:52;;;;;;;0.65;0.60;;;;;;;8.55;96.38;99445.94;4922585;29;20143;-81
2023/03/25 00:10:19;;;;;;;2.97;0.70;;;;;;;8.58;96.24;99438.06;4952203;28;20040;-82
2023/03/25 00:12:46;;;;;;;1.45;0.60;;;;;;;8.53;96.44;99447.72;4917194;29;20493;-81
2023/03/25 00:15:15;;;;;;;1.17;0.35;;;;;;;8.50;97.13;99452.13;4955823;28;20047;-80
2023/03/25 00:17:42;;;;;;;1.25;0.60;;;;;;;8.46;97.28;99443.53;4937291;29;20059;-82
2023/03/25 00:20:10;;;;;;;1.98;0.73;;;;;;;8.42;97.27;99458.34;4939195;29;20102;-81
2023/03/25 00:22:39;;;;;;;2.85;0.38;;;;;;;8.39;97.83;99460.13;4938923;28;20341;-85
2023/03/25 00:25:15;;;;;;;2.17;0.30;;;;;;;8.32;97.80;99446.38;4940242;28;20043;-82
2023/03/25 00:27:44;;;;;;;1.15;0.50;;;;;;;8.30;98.13;99448.13;4934357;29;20079;-82
2023/03/25 00:30:12;;;;;;;0.95;0.50;;;;;;;8.27;98.39;99445.59;4933917;29;20040;-81
2023/03/25 00:32:38;;;;;;;0.82;0.50;;;;;;;8.29;98.39;99443.78;4598210;29;9999952;-84
2023/03/25 00:35:07;;;;;;;0.40;0.40;;;;;;;8.22;99.04;99456.09;4941022;28;20054;-81
2023/03/25 00:37:34;;;;;;;0.85;0.70;;;;;;;8.23;98.66;99443.94;4947803;28;20054;-78
2023/03/25 00:40:00;;;;;;;2.33;0.70;;;;;;;8.20;99.00;99450.06;4947419;29;20487;-78
2023/03/25 00:42:27;;;;;;;0.40;0.40;;;;;;;8.16;99.32;99453.63;4940914;28;20047;-79
2023/03/25 00:44:54;;;;;;;1.88;0.43;;;;;;;8.14;98.86;99444.13;4920108;29;20058;-85
2023/03/25 00:47:21;;;;;;;1.40;0.63;;;;;;;8.15;99.04;99453.63;4935968;29;20063;-79
2023/03/25 00:49:50;;;;;;;2.67;1.15;;;;;;;8.20;98.96;99455.28;4942618;29;20398;-78
2023/03/25 00:52:17;;;;;;;2.92;0.75;;;;;;;8.26;98.50;99455.13;4927645;29;20053;-78
2023/03/25 00:54:44;;;;;;;0.65;0.35;;;;;;;8.23;98.40;99462.19;4922796;29;20055;-88
2023/03/25 00:57:11;;;;;;;1.42;0.60;;;;;;;8.22;98.15;99463.91;4942193;28;20047;-77
2023/03/25 00:59:37;;;;;;;2.08;0.60;;;;;;;8.29;98.44;99467.25;4943450;29;20087;-78
2023/03/25 01:02:05;;;;;;;2.13;0.65;;;;;;;8.37;97.63;99470.59;4950940;28;20059;-80
2023/03/25 01:04:33;;;;;;;3.78;0.70;;;;;;;8.36;97.67;99466.28;4934743;29;20115;-84
2023/03/25 01:07:00;;;;;;;1.92;0.50;;;;;;;8.40;97.67;99462.72;4933402;29;20058;-78
2023/03/25 01:09:26;;;;;;;2.40;0.57;;;;;;;8.47;97.03;99463.47;4942610;28;20562;-81
2023/03/25 01:11:53;;;;;;;2.78;0.77;;;;;;;8.55;96.09;99456.38;4937539;28;20047;-80
2023/03/25 01:14:23;;;;;;;3.13;0.70;;;;;;;8.52;96.18;99453.81;4942679;28;20537;-79
2023/03/25 01:16:50;;;;;;;0.45;0.43;;;;;;;8.56;96.12;99452.00;4932039;29;20060;-79
2023/03/25 01:19:17;;;;;;;2.85;0.82;;;;;;;8.67;94.85;99444.84;4934621;28;20479;-85
2023/03/25 01:21:46;;;;;;;1.38;0.47;;;;;;;8.74;94.54;99442.97;4956861;28;20803;-84
2023/03/25 01:24:14;;;;;;;3.53;1.00;;;;;;;8.80;93.57;99452.41;4919785;28;20043;-82
2023/03/25 01:26:44;;;;;;;2.45;1.02;;;;;;;8.88;93.17;99445.28;4935370;28;20053;-82
2023/03/25 01:29:13;;;;;;;2.22;0.73;;;;;;;8.94;92.79;99442.53;4928419;28;20130;-85
2023/03/25 01:31:40;;;;;;;2.45;1.80;;;;;;;9.03;91.69;99444.06;4922789;28;20055;-78
2023/03/25 01:34:07;;;;;;;0.52;0.52;;;;;;;9.06;92.13;99450.09;4933375;28;20047;-78
2023/03/25 01:36:36;;;;;;;2.08;0.50;;;;;;;9.03;91.96;99449.31;4939748;29;20065;-84
2023/03/25 01:39:05;;;;;;;2.17;0.80;;;;;;;9.07;91.87;99444.00;4933860;29;20049;-78
2023/03/25 01:41:33;;;;;;;4.00;0.82;;;;;;;9.13;90.93;99447.34;4945448;29;20035;-86
2023/03/25 01:44:18;;;;;;;1.98;0.88;;;;;;;9.15;90.89;99449.03;4935111;28;20058;-83
2023/03/25 01:46:44;;;;;;;1.25;0.80;;;;;;;9.15;91.00;99448.16;4952982;28;20500;-83
2023/03/25 01:49:20;;;;;;;1.05;0.80;;;;;;;9.11;91.20;99442.16;4924029;28;20043;-80
2023/03/25 01:51:53;;;;;;;4.65;0.85;;;;;;;9.14;90.74;99436.00;4926201;29;20154;-85
2023/03/25 01:54:20;;;;;;;3.20;0.80;;;;;;;9.14;90.85;99442.09;4934375;28;20567;-78
2023/03/25 01:56:50;;;;;;;3.88;0.77;;;;;;;9.16;90.66;99436.84;4929512;28;20043;-79
2023/03/25 01:59:23;;;;;;;2.88;0.70;;;;;;;9.18;90.88;99429.84;4935770;28;20048;-78
2023/03/25 02:01:52;;;;;;;2.33;0.65;;;;;;;9.13;91.43;99429.94;4935207;29;20507;-80
2023/03/25 02:04:30;;;;;;;2.05;0.80;;;;;;;9.17;91.01;99425.50;4943435;28;20045;-82
2023/03/25 02:06:57;;;;;;;0.82;0.70;;;;;;;9.17;91.15;99422.91;4916834;28;20133;-84
2023/03/25 02:09:25;;;;;;;1.65;1.02;;;;;;;9.15;91.38;99422.94;4939670;28;20051;-77
2023/03/25 02:11:53;;;;;;;2.20;1.15;;;;;;;9.15;91.84;99425.53;4935961;28;20051;-78
2023/03/25 02:14:32;;;;;;;1.80;1.10;;;;;;;9.11;92.30;99423.88;4943537;28;20043;-78
2023/03/25 02:17:11;;;;;;;1.95;0.82;;;;;;;9.07;92.92;99432.66;4934892;29;20118;-82
2023/03/25 02:20:21;;;;;;;0.60;0.60;;;;;;;9.01;92.93;99432.81;4957480;28;20130;-82
2023/03/25 02:23:27;;;;;;;0.77;0.65;;;;;;;8.94;93.73;99438.19;4920559;28;20085;-82
2023/03/25 02:26:35;;;;;;;1.90;0.77;;;;;;;8.88;95.29;99432.25;4957127;28;20044;-80
2023/03/25 02:29:26;;;;;;;1.85;1.25;;;;;;;8.80;97.23;99427.19;4923293;28;20051;-81
2023/03/25 02:32:17;;;;;;;1.92;1.25;;;;;;;8.64;99.17;99428.38;4959852;28;20114;-78
2023/03/25 02:35:23;;;;;;;2.38;2.17;;;;;;;8.51;100.00;99433.00;4952843;28;20126;-78
2023/03/25 02:38:23;;;;;;;2.95;1.40;;;;;;;8.41;100.00;99440.13;4937906;28;20477;-86
2023/03/25 02:40:57;;;;;;;3.53;1.35;;;;;;;8.36;100.00;99445.41;4952588;28;20113;-81
2023/03/25 02:43:34;;;;;;;5.22;1.65;;;;;;;8.36;100.00;99442.81;4940850;28;20051;-78
2023/03/25 02:46:07;;;;;;;2.05;1.40;;;;;;;8.35;100.00;99430.66;4948708;28;20035;-77
2023/03/25 02:49:05;;;;;;;1.70;1.60;;;;;;;8.36;100.00;99418.50;4940286;28;20409;-82
2023/03/25 02:51:41;;;;;;;4.82;1.70;;;;;;;8.37;100.00;99417.56;4962169;28;20031;-78
2023/03/25 02:54:14;;;;;;;2.00;0.98;;;;;;;8.34;100.00;99418.50;4941799;28;20160;-82
2023/03/25 02:56:49;;;;;;;2.67;1.67;;;;;;;8.31;100.00;99426.38;4928606;28;20545;-84
2023/03/25 02:59:21;;;;;;;6.03;1.90;;;;;;;8.35;100.00;99412.41;4944095;28;20575;-79
2023/03/25 03:01:57;;;;;;;2.42;1.80;;;;;;;8.36;100.00;99406.31;4937750;28;20087;-82
2023/03/25 03:04:33;;;;;;;3.50;1.77;;;;;;;8.41;100.00;99398.41;4938122;28;20052;-82
2023/03/25 03:06:59;;;;;;;5.18;1.83;;;;;;;8.41;100.00;99409.69;4945311;28;20050;-79
2023/03/25 03:10:05;;;;;;;2.83;1.50;;;;;;;8.41;99.63;99411.44;4930310;28;20055;-78
2023/03/25 03:13:14;;;;;;;3.40;1.80;;;;;;;8.36;99.38;99408.06;4933224;29;20046;-81
2023/03/25 03:16:12;;;;;;;1.85;1.52;;;;;;;8.35;98.70;99399.34;4953758;28;20135;-80
2023/03/25 03:18:51;;;;;;;2.38;1.88;;;;;;;8.31;98.49;99392.50;4942787;28;20050;-78
2023/03/25 03:21:37;;;;;;;5.30;1.80;;;;;;;8.23;99.56;99390.03;4937299;28;20055;-78
2023/03/25 03:24:21;;;;;;;1.92;1.65;;;;;;;8.10;100.00;99399.00;4926909;29;20055;-81
2023/03/25 03:27:13;;;;;;;4.55;1.92;;;;;;;7.98;100.00;99396.59;4941338;28;20445;-79
2023/03/25 03:29:51;;;;;;;5.20;1.85;;;;;;;7.94;100.00;99390.59;4943715;28;20149;-83
2023/03/25 03:32:52;;;;;;;2.30;1.80;;;;;;;8.06;99.52;99399.94;4932228;28;20486;-81
2023/03/25 03:35:32;;;;;;;2.80;2.17;;;;;;;8.13;98.15;99403.28;4952468;28;20051;-78
2023/03/25 03:38:10;;;;;;;3.05;1.83;;;;;;;8.18;97.23;99397.09;4929105;28;20059;-82
2023/03/25 03:40:40;;;;;;;2.58;1.20;;;;;;;8.17;97.32;99402.34;4934928;28;20047;-78
2023/03/25 03:43:27;;;;;;;1.70;1.58;;;;;;;8.16;97.23;99406.69;4944656;28;20042;-81
2023/03/25 03:46:03;;;;;;;1.58;1.35;;;;;;;8.19;96.37;99401.41;4940210;28;20046;-80
2023/03/25 03:48:50;;;;;;;1.42;1.20;;;;;;;8.21;96.30;99404.88;4937410;29;20039;-78
2023/03/25 03:51:29;;;;;;;4.07;1.38;;;;;;;8.17;96.03;99405.78;4940194;28;20083;-82
2023/03/25 03:54:22;;;;;;;2.00;1.13;;;;;;;8.18;95.83;99410.13;4940169;28;20230;-83
2023/03/25 03:57:01;;;;;;;3.25;1.65;;;;;;;8.19;95.52;99408.38;4937294;28;20091;-84
2023/03/25 03:59:40;;;;;;;3.00;1.20;;;;;;;8.18;95.72;99415.34;4943812;28;20047;-78
2023/03/25 04:02:38;;;;;;;2.03;1.20;;;;;;;8.07;96.21;99417.28;4953731;28;20040;-79
2023/03/25 04:05:10;;;;;;;2.90;1.42;;;;;;;7.96;96.44;99412.28;4927835;29;20137;-86
2023/03/25 04:08:01;;;;;;;2.65;1.50;;;;;;;7.93;96.46;99418.41;4942208;28;20051;-79
2023/03/25 04:11:06;;;;;;;2.15;0.77;;;;;;;7.99;95.39;99420.06;4924558;28;20048;-82
2023/03/25 04:13:37;;;;;;;4.65;1.55;;;;;;;7.96;94.96;99420.09;4939119;28;20059;-78
2023/03/25 04:16:04;;;;;;;4.03;1.67;;;;;;;7.94;95.20;99422.72;4946487;28;20504;-81
2023/03/25 04:18:32;;;;;;;4.10;1.20;;;;;;;7.93;95.33;99412.34;4937467;29;20094;-78
2023/03/25 04:21:00;;;;;;;5.25;1.30;;;;;;;7.93;94.96;99418.41;4946120;28;20043;-83
2023/03/25 04:23:29;;;;;;;2.42;1.27;;;;;;;7.98;94.62;99422.66;4946705;28;20047;-78
2023/03/25 04:25:56;;;;;;;2.35;1.42;;;;;;;8.12;93.34;99420.66;4925991;28;20109;-81
2023/03/25 04:28:24;;;;;;;1.50;0.82;;;;;;;8.16;93.43;99429.28;4938433;28;20035;-78
2023/03/25 04:30:54;;;;;;;7.63;2.13;;;;;;;8.04;94.13;99425.16;4940132;28;20130;-78
2023/03/25 04:33:23;;;;;;;5.88;1.45;;;;;;;7.82;95.18;99428.13;4941817;28;20084;-79
2023/03/25 04:35:50;;;;;;;4.32;1.55;;;;;;;7.63;95.72;99417.19;4930367;28;20047;-78
2023/03/25 04:38:18;;;;;;;1.63;1.50;;;;;;;7.56;96.90;99423.38;4940076;28;20059;-82
2023/03/25 04:40:46;;;;;;;4.20;1.23;;;;;;;7.50;97.58;99419.13;4935607;28;20391;-79
2023/03/25 04:43:17;;;;;;;5.13;1.80;;;;;;;7.38;97.44;99409.78;4937696;28;20490;-80
2023/03/25 04:45:47;;;;;;;8.85;2.42;;;;;;;7.42;97.54;99416.66;4937596;28;20046;-79
2023/03/25 04:48:25;;;;;;;6.03;1.90;;;;;;;7.60;96.00;99423.31;4940716;28;20532;-78
2023/03/25 04:50:51;;;;;;;4.25;2.72;;;;;;;7.68;95.33;99419.69;4938952;28;20052;-80
2023/03/25 04:53:18;;;;;;;5.20;2.05;;;;;;;7.74;95.33;99422.22;4934178;29;20050;-79
2023/03/25 04:55:46;;;;;;;2.33;1.50;;;;;;;7.88;94.38;99419.38;4933477;28;20042;-79
2023/03/25 04:58:14;;;;;;;3.45;1.70;;;;;;;7.95;94.25;99418.38;4943338;28;20035;-80
2023/03/25 05:00:51;;;;;;;3.53;2.20;;;;;;;7.98;94.37;99412.22;4941790;28;20444;-79
2023/03/25 05:03:22;;;;;;;3.28;1.33;;;;;;;7.96;95.24;99422.69;4923601;28;20475;-83
2023/03/25 05:05:51;;;;;;;3.78;2.10;;;;;;;7.90;95.41;99413.25;4939159;28;20630;-78
2023/03/25 05:08:20;;;;;;;2.25;1.33;;;;;;;7.96;94.93;99414.88;4940285;28;20885;-80
2023/03/25 05:10:47;;;;;;;4.93;1.60;;;;;;;7.91;95.37;99414.97;4941466;28;20060;-79
2023/03/25 05:13:13;;;;;;;4.70;1.73;;;;;;;7.85;95.87;99430.72;4943540;28;20059;-79
2023/03/25 05:15:42;;;;;;;7.10;2.47;;;;;;;7.82;96.66;99435.94;4925138;29;20043;-78
2023/03/25 05:18:14;;;;;;;2.10;1.83;;;;;;;7.86;96.11;99434.16;4944875;28;20486;-78
2023/03/25 05:20:45;;;;;;;3.88;1.67;;;;;;;7.78;96.99;99434.28;4943418;28;20039;-82
2023/03/25 05:23:16;;;;;;;2.30;1.13;;;;;;;7.77;97.54;99423.03;4953726;28;20450;-80
2023/03/25 05:25:49;;;;;;;2.60;1.27;;;;;;;7.66;98.31;99442.31;4943586;29;20527;-92
2023/03/25 05:28:18;;;;;;;3.05;1.17;;;;;;;7.59;98.66;99434.59;4929723;28;20075;-78
2023/03/25 05:30:47;;;;;;;2.28;1.30;;;;;;;7.52;98.20;99430.41;4938031;28;20047;-78
2023/03/25 05:33:17;;;;;;;0.80;0.80;;;;;;;7.53;97.66;99428.66;4922408;28;20045;-78
2023/03/25 05:35:45;;;;;;;0.82;0.80;;;;;;;7.45;97.75;99423.56;4940388;28;20039;-78
2023/03/25 05:38:15;;;;;;;2.53;1.10;;;;;;;7.26;99.39;99425.56;4938312;28;20060;-78
2023/03/25 05:40:42;;;;;;;1.85;1.20;;;;;;;7.00;100.00;99428.56;4941327;28;20130;-78
2023/03/25 05:43:08;;;;;;;2.03;1.00;;;;;;;6.87;100.00;99436.56;4946279;28;20055;-78
2023/03/25 05:45:35;;;;;;;1.73;1.02;;;;;;;6.91;100.00;99426.94;4950500;28;20057;-87
2023/03/25 05:48:03;;;;;;;1.40;1.00;;;;;;;6.96;100.00;99435.53;4927067;28;20118;-85
2023/03/25 05:50:30;;;;;;;1.55;1.45;;;;;;;7.04;100.00;99433.72;4941907;28;20042;-78
2023/03/25 05:52:58;;;;;;;2.63;1.27;;;;;;;7.16;100.00;99427.47;4919572;28;20138;-78
2023/03/25 05:55:25;;;;;;;3.38;1.55;;;;;;;7.25;100.00;99427.34;4939577;28;20051;-78
2023/03/25 05:57:53;;;;;;;1.65;1.52;;;;;;;7.38;100.00;99430.59;4924235;28;20709;-79
2023/03/25 06:00:21;;;;;;;1.52;1.30;;;;;;;7.45;100.00;99428.75;4943382;28;20067;-81
2023/03/25 06:02:49;;;;;;;4.22;1.70;;;;;;;7.52;100.00;99425.19;4920607;28;20099;-79
2023/03/25 06:05:16;;;;;;;2.65;2.00;;;;;;;7.58;100.00;99432.88;4937825;28;20495;-79
2023/03/25 06:07:46;;;;;;;3.45;1.70;;;;;;;7.65;100.00;99428.44;4939734;28;20402;-81
2023/03/25 06:10:16;;;;;;;1.52;1.42;;;;;;;7.71;100.00;99425.72;4939700;28;20519;-79
2023/03/25 06:12:46;;;;;;;4.28;1.88;;;;;;;7.74;100.00;99438.72;4941406;29;20382;-82
2023/03/25 06:15:20;;;;;;;2.25;1.65;;;;;;;7.79;99.91;99415.19;4944342;28;20055;-78
2023/03/25 06:17:46;;;;;;;4.53;2.13;;;;;;;7.73;99.65;99434.38;4937460;28;20062;-84
2023/03/25 06:20:18;;;;;;;1.83;1.67;;;;;;;7.63;100.00;99435.44;4938023;28;20062;-81
2023/03/25 06:22:45;;;;;;;3.78;1.58;;;;;;;7.61;100.00;99434.56;4925853;28;20055;-81
2023/03/25 06:25:17;;;;;;;6.00;1.85;;;;;;;7.68;99.83;99437.94;4944214;28;20050;-80
2023/03/25 06:27:45;;;;;;;3.67;2.05;;;;;;;7.70;99.89;99421.41;4923732;28;20086;-80
2023/03/25 06:30:21;;;;;;;1.67;1.58;;;;;;;7.86;98.83;99424.63;4940090;29;20050;-79
2023/03/25 06:32:54;;;;;;;3.90;2.45;;;;;;;8.01;97.71;99433.91;4940847;28;20039;-79
2023/03/25 06:35:21;;;;;;;3.17;1.60;;;;;;;8.09;97.08;99429.38;4933246;28;20075;-79
2023/03/25 06:37:49;;;;;;;1.67;1.55;;;;;;;8.22;95.74;99429.19;4929694;28;20122;-80
2023/03/25 06:40:16;;;;;;;3.75;1.52;;;;;;;8.32;94.00;99432.44;4935215;28;20051;-82
2023/03/25 06:42:42;;;;;;;2.13;1.48;;;;;;;8.34;94.06;99441.13;4932556;28;20524;-84
2023/03/25 06:45:10;;;;;;;2.22;1.58;;;;;;;8.34;93.94;99441.97;4936757;28;20043;-93
2023/03/25 06:47:37;;;;;;;1.55;1.45;;;;;;;8.39;93.06;99444.50;4919400;28;20133;-82
2023/03/25 06:50:04;;;;;;;3.95;1.42;;;;;;;8.40;93.34;99447.06;4920575;28;20383;-82
2023/03/25 06:52:30;;;;;;;2.67;1.60;;;;;;;8.40;93.31;99441.00;4939946;29;20051;-81
2023/03/25 06:54:57;;;;;;;1.92;1.40;;;;;;;8.38;93.90;99447.97;4936635;28;20485;-80
2023/03/25 06:57:24;;;;;;;2.05;1.50;;;;;;;8.40;94.17;99439.25;4938014;28;20040;-77
2023/03/25 06:59:50;;;;;;;2.33;2.03;;;;;;;8.44;93.70;99433.06;4919986;28;20051;-79
2023/03/25 07:02:17;;;;;;;4.00;1.88;;;;;;;8.55;92.97;99439.84;4937868;28;20047;-80
2023/03/25 07:04:43;;;;;;;4.10;1.88;;;;;;;8.54;92.61;99446.84;4935893;28;20077;-79
2023/03/25 07:07:10;;;;;;;2.65;1.50;;;;;;;8.64;92.11;99449.25;4940563;28;20490;-85
2023/03/25 07:09:36;;;;;;;4.95;1.10;;;;;;;8.67;90.81;99442.22;4937972;29;20048;-83
2023/03/25 07:12:06;;;;;;;7.07;2.85;;;;;;;8.57;91.46;99435.47;4939030;28;20043;-81
2023/03/25 07:14:32;;;;;;;2.15;1.50;;;;;;;8.84;91.02;99438.38;4932360;28;20039;-83
2023/03/25 07:16:59;;;;;;;2.05;1.30;;;;;;;9.66;86.26;99450.47;4934003;28;20052;-82
2023/03/25 07:19:25;;;;;;;1.40;1.30;;;;;;;10.24;81.96;99450.69;4923554;28;20181;-79
2023/03/25 07:21:52;;;;;;;2.85;1.90;;;;;;;10.02;82.50;99441.72;4938663;28;20379;-79
2023/03/25 07:24:18;;;;;;;2.03;1.60;;;;;;;9.90;83.13;99448.13;4944366;28;20420;-80
2023/03/25 07:26:45;;;;;;;1.60;1.50;;;;;;;9.89;82.16;99446.41;4932459;28;20695;-84
2023/03/25 07:29:11;;;;;;;3.95;1.83;;;;;;;10.21;81.40;99449.94;4960481;28;20473;-81
2023/03/25 07:31:38;;;;;;;4.32;1.75;;;;;;;10.03;80.79;99469.59;4958847;28;20057;-78
2023/03/25 07:34:07;;;;;;;5.43;1.90;;;;;;;9.69;83.17;99454.75;4932503;29;20047;-81
2023/03/25 07:36:34;;;;;;;2.08;1.95;;;;;;;9.42;84.47;99451.91;4942854;28;20485;-78
2023/03/25 07:39:00;;;;;;;3.75;1.55;;;;;;;9.29;85.72;99471.38;4936930;29;20051;-78
2023/03/25 07:41:27;;;;;;;5.38;1.40;;;;;;;9.11;87.43;99473.47;4954963;28;20094;-79
2023/03/25 07:43:53;;;;;;;7.40;1.75;;;;;;;8.84;90.03;99470.59;4939685;28;20138;-79
2023/03/25 07:46:20;;;;;;;5.40;1.67;;;;;;;8.10;100.00;99485.00;4940020;28;20060;-79
2023/03/25 07:48:46;;;;;;;4.07;1.90;;;;;;;7.47;100.00;99486.03;4961924;28;20042;-78
2023/03/25 07:51:13;;;;;;;2.00;1.73;;;;;;;7.23;100.00;99488.94;4944403;29;20066;-80
2023/03/25 07:53:43;;;;;;;7.70;2.58;;;;;;;7.37;100.00;99469.69;4945523;28;20039;-82
2023/03/25 07:56:10;;;;;;;1.73;1.10;;;;;;;7.49;100.00;99479.06;4941248;28;20094;-81
2023/03/25 07:58:37;;;;;;;2.80;1.73;;;;;;;7.70;100.00;99476.09;4945049;28;20062;-81
2023/03/25 08:01:05;;;;;;;3.33;2.00;;;;;;;7.89;100.00;99478.44;4922122;28;20051;-83
2023/03/25 08:03:32;;;;;;;3.33;2.55;;;;;;;8.19;100.00;99468.34;4952622;28;20042;-79
2023/03/25 08:06:01;;;;;;;3.65;1.98;;;;;;;8.39;100.00;99471.41;4934990;28;20133;-80
2023/03/25 08:08:29;;;;;;;3.28;2.25;;;;;;;8.60;100.00;99459.75;4935289;28;20051;-81
2023/03/25 08:10:56;;;;;;;3.28;1.55;;;;;;;9.00;96.47;99446.78;4931193;28;20057;-78
2023/03/25 08:13:23;;;;;;;1.85;1.42;;;;;;;9.20;94.67;99465.44;4944078;28;20035;-84
2023/03/25 08:15:50;;;;;;;2.22;1.10;;;;;;;9.17;94.37;99470.72;4937821;28;20050;-78
2023/03/25 08:18:16;;;;;;;2.40;1.20;;;;;;;9.08;93.82;99474.41;4943450;28;20050;-84
2023/03/25 08:20:43;;;;;;;4.55;1.15;;;;;;;8.93;93.79;99469.53;4942821;28;20062;-83
2023/03/25 08:23:11;;;;;;;2.53;1.33;;;;;;;8.88;94.10;99474.84;4940357;28;20057;-82
2023/03/25 08:25:40;;;;;;;2.25;0.73;;;;;;;8.86;93.16;99483.59;4937933;28;20563;-79
2023/03/25 08:28:07;;;;;;;3.47;1.00;;;;;;;8.90;92.07;99478.28;4950358;28;20176;-79
2023/03/25 08:30:37;;;;;;;2.50;0.90;;;;;;;8.88;91.80;99471.38;4944409;28;20046;-81
2023/03/25 08:33:07;;;;;;;2.75;0.88;;;;;;;8.93;90.75;99480.81;4923094;28;20055;-79
2023/03/25 08:35:36;;;;;;;4.15;1.52;;;;;;;9.06;90.20;99486.66;4935237;29;20051;-82
2023/03/25 08:38:05;;;;;;;4.95;1.17;;;;;;;9.13;89.95;99479.53;4940541;28;20051;-82
2023/03/25 08:40:38;;;;;;;4.93;1.00;;;;;;;9.26;89.38;99477.50;4937150;29;20059;-78
2023/03/25 08:43:06;;;;;;;1.23;1.00;;;;;;;9.31;89.01;99478.28;4943037;28;20106;-78
2023/03/25 08:45:35;;;;;;;5.20;0.98;;;;;;;9.29;89.22;99476.59;4947535;28;20046;-77
2023/03/25 08:48:07;;;;;;;2.75;1.10;;;;;;;9.13;89.63;99486.53;4917641;29;20051;-78
2023/03/25 08:50:33;;;;;;;2.15;0.93;;;;;;;8.98;90.69;99493.75;4934610;28;20094;-84
2023/03/25 08:53:00;;;;;;;4.43;0.70;;;;;;;8.90;92.09;99493.94;4938839;28;20053;-80
2023/03/25 08:55:28;;;;;;;4.55;0.95;;;;;;;8.85;93.48;99481.88;4923270;28;20047;-83
2023/03/25 08:58:02;;;;;;;2.25;0.90;;;;;;;8.71;94.99;99485.63;4925652;29;20051;-80
2023/03/25 09:00:30;;;;;;;2.83;1.13;;;;;;;8.72;95.56;99484.75;4938315;28;20114;-79
2023/03/25 09:02:57;;;;;;;4.40;0.80;;;;;;;8.77;95.55;99479.41;4939492;29;20046;-78
2023/03/25 09:05:25;;;;;;;0.88;0.88;;;;;;;8.81;96.21;99482.81;4939752;29;20130;-88
2023/03/25 09:08:10;;;;;;;0.77;0.75;;;;;;;8.84;96.25;99475.81;4955671;28;20191;-79
2023/03/25 09:10:37;;;;;;;3.28;1.15;;;;;;;8.93;95.35;99475.59;4938200;29;20132;-83
2023/03/25 09:13:04;;;;;;;1.60;1.50;;;;;;;8.96;93.96;99479.03;4942796;28;20051;-79
2023/03/25 09:15:31;;;;;;;2.85;0.82;;;;;;;9.01;94.45;99487.63;4940551;29;20039;-77
2023/03/25 09:17:57;;;;;;;2.85;0.98;;;;;;;8.94;93.42;99486.88;4945305;28;20496;-85
2023/03/25 09:20:24;;;;;;;1.30;1.20;;;;;;;8.82;93.97;99471.50;4988938;23;20062;-79
2023/03/25 09:22:53;;;;;;;1.40;1.30;;;;;;;8.74;93.94;99463.84;4938394;29;20067;-82
2023/03/25 09:25:20;;;;;;;1.75;1.27;;;;;;;8.65;94.87;99471.84;4931559;29;20119;-79
2023/03/25 09:27:46;;;;;;;3.72;1.20;;;;;;;8.57;96.29;99485.88;4949510;29;20106;-79
2023/03/25 09:30:15;;;;;;;1.90;1.80;;;;;;;8.60;96.36;99488.47;4949820;29;20039;-83
2023/03/25 09:32:43;;;;;;;1.27;1.17;;;;;;;8.67;96.11;99483.97;4918571;29;20516;-82
2023/03/25 09:35:13;;;;;;;1.95;1.15;;;;;;;8.84;94.52;99483.63;4938040;29;20154;-78
2023/03/25 09:37:39;;;;;;;2.92;1.50;;;;;;;9.02;92.54;99486.72;4942349;29;20043;-78
2023/03/25 09:40:08;;;;;;;4.88;1.30;;;;;;;9.12;91.25;99471.75;4938011;29;20138;-79
2023/03/25 09:43:04;;;;;;;6.15;1.65;;;;;;;9.08;91.62;99484.84;4942945;29;20493;-79
2023/03/25 09:48:40;;;;;;;2.38;1.30;;;;;;;9.08;90.16;99495.28;4920779;29;20067;-78
2023/03/25 09:51:28;;;;;;;3.63;1.75;;;;;;;9.20;90.33;99490.69;4949366;28;20039;-78
2023/03/25 09:54:16;;;;;;;2.95;1.48;;;;;;;9.31;89.87;99488.72;4936263;29;20062;-78
2023/03/25 09:56:44;;;;;;;4.10;1.40;;;;;;;9.48;88.84;99472.66;4957522;28;20055;-80
2023/03/25 09:59:17;;;;;;;4.40;1.95;;;;;;;9.55;87.55;99489.88;4935165;29;20064;-80
2023/03/25 10:01:55;;;;;;;3.50;1.40;;;;;;;9.72;86.37;99486.88;4918772;29;20134;-78
2023/03/25 10:05:15;;;;;;;2.78;1.60;;;;;;;9.88;86.63;99482.16;4934420;29;20314;-81
2023/03/25 10:08:20;;;;;;;3.33;2.05;;;;;;;10.40;83.81;99479.09;4934811;29;20039;-80
2023/03/25 10:11:06;;;;;;;;;;;;;;;11.10;80.68;99467.50;4946531;29;20128;-79
2023/03/25 10:14:01;;;;;;;6.13;1.85;;;;;;;11.44;78.67;99468.25;4950102;29;19930;-79
2023/03/25 10:16:54;;;;;;;5.88;2.35;;;;;;;11.12;76.65;99478.81;4929560;29;20571;-80
2023/03/25 10:19:36;;;;;;;3.50;2.10;;;;;;;10.96;76.94;99473.16;4934260;29;20059;-79
2023/03/25 10:22:12;;;;;;;4.00;1.90;;;;;;;10.76;78.22;99471.97;4931146;29;20130;-79
2023/03/25 10:25:02;;;;;;;6.55;2.20;;;;;;;10.65;77.25;99481.91;4929085;29;20049;-79
2023/03/25 10:27:52;;;;;;;5.25;1.50;;;;;;;10.62;77.67;99476.75;4933803;29;20391;-82
2023/03/25 10:30:23;;;;;;;2.85;2.05;;;;;;;10.72;78.14;99472.97;4918476;29;20054;-79
2023/03/25 10:33:03;;;;;;;10.13;3.40;;;;;;;11.54;76.00;99462.66;4932045;29;20082;-80
2023/03/25 10:35:35;;;;;;;3.08;1.20;;;;;;;13.14;67.05;99460.59;4910624;29;20131;-84
2023/03/25 10:38:17;;;;;;;4.65;1.70;;;;;;;13.07;67.51;99464.34;4929810;29;20043;-81
2023/03/25 10:40:48;;;;;;;2.00;1.30;;;;;;;12.57;67.68;99463.56;4928622;29;20036;-79
2023/03/25 10:43:36;;;;;;;3.72;1.52;;;;;;;12.05;69.01;99473.25;4943625;29;20043;-83
2023/03/25 10:46:50;;;;;;;4.60;1.85;;;;;;;11.68;68.96;99454.34;4942250;28;20065;-85
2023/03/25 10:49:21;;;;;;;8.20;2.03;;;;;;;11.36;69.71;99448.34;4922349;29;21026;-83
2023/03/25 10:51:53;;;;;;;3.03;2.30;;;;;;;11.16;70.36;99466.44;4917374;29;20714;-79
2023/03/25 10:54:30;;;;;;;2.95;2.17;;;;;;;11.06;69.93;99455.41;4934831;29;20052;-82
2023/03/25 10:57:06;;;;;;;3.85;2.08;;;;;;;10.84;70.65;99458.66;4932474;29;20043;-79
2023/03/25 10:59:35;;;;;;;8.45;1.90;;;;;;;10.86;70.35;99471.69;4932049;29;21226;-79
2023/03/25 11:02:23;;;;;;;3.72;1.77;;;;;;;10.68;68.59;99453.00;4931678;29;20088;-78
2023/03/25 11:04:56;;;;;;;3.80;2.13;;;;;;;10.57;69.92;99463.81;4930538;29;20047;-82
2023/03/25 11:07:42;;;;;;;3.67;1.90;;;;;;;10.61;70.89;99463.69;4933808;29;20549;-80
2023/03/25 11:10:21;;;;;;;4.03;1.90;;;;;;;10.67;70.47;99460.91;4934267;29;20043;-79
2023/03/25 11:12:51;;;;;;;4.22;1.70;;;;;;;10.66;70.15;99470.50;4932348;29;20046;-85
2023/03/25 11:15:34;;;;;;;5.70;2.17;;;;;;;10.64;69.33;99454.00;4918719;29;20052;-82
2023/03/25 11:18:39;;;;;;;5.18;2.55;;;;;;;10.61;69.11;99468.94;4932276;29;20214;-79
2023/03/25 11:21:15;;;;;;;1.90;1.48;;;;;;;10.53;68.66;99464.78;4924603;29;20096;-96
2023/03/25 11:23:51;;;;;;;6.40;1.90;;;;;;;10.67;68.86;99455.69;4921825;29;20067;-92
2023/03/25 11:26:22;;;;;;;7.00;1.55;;;;;;;10.98;67.75;99460.03;4927956;29;20039;-84
2023/03/25 11:28:54;;;;;;;5.93;1.70;;;;;;;11.00;67.96;99460.81;4917039;29;20386;-83
2023/03/25 11:31:24;;;;;;;3.80;1.65;;;;;;;10.83;68.12;99450.84;4933067;29;20051;-85
2023/03/25 11:34:04;;;;;;;8.32;1.85;;;;;;;10.69;68.97;99457.34;4930253;29;20454;-81
2023/03/25 11:36:36;;;;;;;3.90;1.40;;;;;;;10.75;68.54;99456.31;4928338;29;20046;-85
2023/03/25 11:39:30;;;;;;;4.22;1.33;;;;;;;10.80;69.17;99450.97;4932762;29;20066;-87
2023/03/25 11:41:58;;;;;;;2.50;1.33;;;;;;;10.76;68.76;99451.03;4930533;29;20530;-82
2023/03/25 11:44:31;;;;;;;2.13;1.42;;;;;;;10.77;69.22;99444.06;4923557;29;20042;-83
2023/03/25 11:47:03;;;;;;;5.10;1.48;;;;;;;10.72;69.58;99467.72;4922550;29;20195;-84
2023/03/25 11:49:36;;;;;;;2.17;1.20;;;;;;;10.72;70.12;99452.03;4937087;29;20051;-91
2023/03/25 11:52:43;;;;;;;3.70;1.55;;;;;;;10.94;69.58;99443.56;4923336;29;20055;-84
2023/03/25 11:55:30;;;;;;;1.63;0.93;;;;;;;11.56;68.44;99445.13;4921526;29;20063;-80
2023/03/25 11:57:59;;;;;;;5.47;1.70;;;;;;;11.81;67.83;99446.06;4927875;29;20039;-79
2023/03/25 12:00:26;;;;;;;3.97;1.90;;;;;;;11.50;67.98;99439.19;4927767;29;20055;-81
2023/03/25 12:03:13;;;;;;;3.67;1.50;;;;;;;11.26;69.25;99452.16;4927730;29;20063;-80
2023/03/25 12:05:41;;;;;;;2.92;2.58;;;;;;;11.08;69.64;99438.75;4943445;28;20558;-82
2023/03/25 12:08:19;;;;;;;3.22;1.45;;;;;;;10.98;70.65;99446.94;4926791;29;20510;-83
2023/03/25 12:10:55;;;;;;;5.45;2.20;;;;;;;11.07;71.02;99451.91;4914422;29;20052;-83